Terminal Aerodrome Forecast
Issued by NWS State College, PA

Home | Current Version | Previous Version | Text Only | Print | Product List | Glossary On
Versions: 1 2 3 4 5 6 7 8 9 10 11 12 13 14 15 16 17 18 19 20 21 22 23 24 25 26 27
000
FTUS41 KCTP 162338
TAFMDT
TAF
KMDT 162338Z 1700/1724 VRB03KT 1 1/2SM -SN BR BKN009 OVC015
      TEMPO 1700/1703 3/4SM -SN BR OVC006
     FM170300 VRB03KT 2SM -SN BR OVC015
     FM170700 30004KT 4SM -SN BR OVC020
     FM171200 31008KT P6SM OVC030
     FM171400 32011KT P6SM BKN045
     FM171800 32012KT P6SM SCT050=

USA.gov is the U.S. government's official web portal to all federal, state and local government web resources and services.